Terminal Aerodrome Forecast
Issued by NWS Shreveport, LA

Home | Current Version | Previous Version | Text Only | Print | Product List | Glossary On
Versions: 1 2 3 4 5 6 7 8 9 10 11 12 13 14
117
FTUS44 KSHV 131720
TAFSHV
TAF
KSHV 131720Z 1318/1418 11012KT P6SM SKC
     FM140000 12008KT P6SM SCT045 SCT250
      TEMPO 1402/1406 BKN040
     FM140600 13007KT P6SM BKN040 BKN250
     FM141500 15008KT P6SM OVC025=

USA.gov is the U.S. government's official web portal to all federal, state and local government web resources and services.